createdAt,value
2023-04-19T00:00:32.936Z,102405.56
2023-04-19T00:03:36.380Z,102407.13
2023-04-19T00:06:41.229Z,102404.66
2023-04-19T00:09:44.206Z,102401.63
2023-04-19T00:12:48.565Z,102401.44
2023-04-19T00:15:51.384Z,102398.94
2023-04-19T00:18:54.428Z,102395.97
2023-04-19T00:21:57.397Z,102392.72
2023-04-19T00:25:00.319Z,102387.22
2023-04-19T00:28:05.300Z,102390.00
2023-04-19T00:31:08.194Z,102386.69
2023-04-19T00:34:11.333Z,102391.03
2023-04-19T00:37:14.285Z,102398.50
2023-04-19T00:40:17.181Z,102396.66
2023-04-19T00:43:21.960Z,102395.38
2023-04-19T00:46:25.661Z,102393.25
2023-04-19T00:49:29.129Z,102393.69
2023-04-19T00:52:33.900Z,102392.63
2023-04-19T00:55:38.656Z,102378.97
2023-04-19T00:58:43.030Z,102391.31
2023-04-19T01:01:46.049Z,102384.22
2023-04-19T01:04:49.249Z,102389.88
2023-04-19T01:07:52.229Z,102390.03
2023-04-19T01:10:55.079Z,102387.69
2023-04-19T01:13:59.910Z,102397.38
2023-04-19T01:17:02.763Z,102394.84
2023-04-19T01:20:08.231Z,102384.72
2023-04-19T01:23:12.713Z,102390.06
2023-04-19T01:26:16.229Z,102387.34
2023-04-19T01:29:20.961Z,102388.78
2023-04-19T01:32:25.382Z,102380.53
2023-04-19T01:35:28.459Z,102380.53
2023-04-19T01:38:32.875Z,102382.69
2023-04-19T01:41:35.771Z,102387.38
2023-04-19T01:44:38.723Z,102387.28
2023-04-19T01:47:41.655Z,102379.66
2023-04-19T01:50:44.679Z,102374.50
2023-04-19T01:53:52.568Z,102379.56
2023-04-19T01:56:55.564Z,102374.97
2023-04-19T01:59:58.921Z,102369.78
2023-04-19T02:03:02.113Z,102376.31
2023-04-19T02:06:05.421Z,102374.53
2023-04-19T02:09:09.718Z,102366.25
2023-04-19T02:12:12.524Z,102368.34
2023-04-19T02:15:15.575Z,102367.22
2023-04-19T02:18:18.407Z,102363.44
2023-04-19T02:21:21.510Z,102356.38
2023-04-19T02:24:26.000Z,102361.75
2023-04-19T02:27:28.915Z,102357.75
2023-04-19T02:30:31.922Z,102359.09
2023-04-19T02:33:34.880Z,102352.81
2023-04-19T02:36:37.959Z,102356.72
2023-04-19T02:39:42.815Z,102351.31
2023-04-19T02:42:45.791Z,102347.09
2023-04-19T02:45:48.874Z,102345.88
2023-04-19T02:48:51.765Z,102348.31
2023-04-19T02:51:55.905Z,102338.34
2023-04-19T02:55:00.201Z,102333.13
2023-04-19T02:58:03.375Z,102334.44
2023-04-19T03:01:07.304Z,102329.03
2023-04-19T03:04:10.351Z,102331.72
2023-04-19T03:07:13.542Z,102324.41
2023-04-19T03:10:18.417Z,102326.41
2023-04-19T03:13:21.342Z,102321.16
2023-04-19T03:16:24.583Z,102312.53
2023-04-19T03:19:27.490Z,102311.69
2023-04-19T03:22:30.852Z,102311.22
2023-04-19T03:25:35.320Z,102296.69
2023-04-19T03:28:38.271Z,102299.78
2023-04-19T03:31:41.202Z,102294.22
2023-04-19T03:34:46.916Z,102302.00
2023-04-19T03:37:49.947Z,102289.16
2023-04-19T03:40:56.222Z,102291.38
2023-04-19T03:43:59.223Z,102281.47
2023-04-19T03:47:02.103Z,102285.94
2023-04-19T03:50:05.488Z,102288.47
2023-04-19T03:53:08.596Z,102285.25
2023-04-19T03:56:12.972Z,102280.75
2023-04-19T03:59:15.772Z,102291.28
2023-04-19T04:02:18.943Z,102281.66
2023-04-19T04:05:22.033Z,102280.50
2023-04-19T04:08:25.143Z,102278.47
2023-04-19T04:11:29.546Z,102279.28
2023-04-19T04:14:32.356Z,102271.13
2023-04-19T04:17:35.455Z,102279.94
2023-04-19T04:20:38.450Z,102269.94
2023-04-19T04:23:41.936Z,102276.47
2023-04-19T04:26:46.201Z,102275.94
2023-04-19T04:29:49.489Z,102268.78
2023-04-19T04:32:52.524Z,102269.53
2023-04-19T04:35:56.345Z,102265.75
2023-04-19T04:39:01.999Z,102259.00
2023-04-19T04:42:07.896Z,102257.00
2023-04-19T04:45:11.768Z,102258.84
2023-04-19T04:48:14.649Z,102255.59
2023-04-19T04:51:17.309Z,102253.78
2023-04-19T04:54:20.086Z,102247.31
2023-04-19T04:57:24.110Z,102253.97
2023-04-19T05:00:27.373Z,102256.66
2023-04-19T05:03:30.624Z,102255.09
2023-04-19T05:06:33.297Z,102251.28
2023-04-19T05:09:36.013Z,102257.84
2023-04-19T05:15:42.977Z,102253.03
2023-04-19T05:18:45.903Z,102247.88
2023-04-19T05:21:49.288Z,102241.00
2023-04-19T05:24:52.229Z,102241.34
2023-04-19T05:27:56.430Z,102244.53
2023-04-19T05:31:02.334Z,102239.25
2023-04-19T05:34:05.401Z,102238.28
2023-04-19T05:37:08.252Z,102225.09
2023-04-19T05:40:11.780Z,102220.03
2023-04-19T05:43:16.196Z,102231.72
2023-04-19T05:46:19.081Z,102219.56
2023-04-19T05:49:21.952Z,102224.47
2023-04-19T05:52:24.920Z,102223.72
2023-04-19T05:55:27.989Z,102218.47
2023-04-19T06:05:02.460Z,102213.06
2023-04-19T06:08:09.451Z,102203.81
2023-04-19T06:11:24.588Z,102208.41
2023-04-19T06:14:31.990Z,102203.66
2023-04-19T06:17:34.909Z,102205.78
2023-04-19T06:20:39.797Z,102215.66
2023-04-19T06:23:42.734Z,102216.91
2023-04-19T06:26:47.727Z,102213.78
2023-04-19T06:29:51.344Z,102213.44
2023-04-19T06:32:54.482Z,102207.16
2023-04-19T06:35:58.973Z,102218.72
2023-04-19T06:39:01.914Z,102213.59
2023-04-19T06:42:05.642Z,102203.28
2023-04-19T06:45:09.523Z,102205.53
2023-04-19T06:48:12.593Z,102204.56
2023-04-19T06:51:16.910Z,102196.56
2023-04-19T06:54:19.874Z,102192.28
2023-04-19T06:57:22.934Z,102190.50
2023-04-19T07:00:26.382Z,102176.81
2023-04-19T07:03:29.902Z,102181.25
2023-04-19T07:06:34.405Z,102176.97
2023-04-19T07:09:37.405Z,102171.38
2023-04-19T07:12:40.328Z,102158.16
2023-04-19T07:15:43.232Z,102156.53
2023-04-19T07:18:46.085Z,102151.75
2023-04-19T07:21:50.413Z,102159.03
2023-04-19T07:24:53.930Z,102155.72
2023-04-19T07:27:57.577Z,102142.19
2023-04-19T07:31:00.947Z,102146.34
2023-04-19T07:34:03.834Z,102145.72
2023-04-19T07:37:08.681Z,102134.56
2023-04-19T07:40:12.658Z,102141.69
2023-04-19T07:43:15.937Z,102136.13
2023-04-19T07:46:18.858Z,102139.69
2023-04-19T07:49:22.175Z,102130.56
2023-04-19T07:52:26.619Z,102131.66
2023-04-19T07:55:29.572Z,102122.34
2023-04-19T07:58:32.535Z,102121.97
2023-04-19T08:01:35.751Z,102118.66
2023-04-19T08:04:39.936Z,102121.88
2023-04-19T08:07:44.655Z,102111.41
2023-04-19T08:10:47.531Z,102119.41
2023-04-19T08:14:02.640Z,102105.94
2023-04-19T08:20:16.171Z,102097.31
2023-04-19T08:23:26.065Z,102104.75
2023-04-19T08:26:32.458Z,102094.72
2023-04-19T08:29:35.388Z,102087.63
2023-04-19T08:32:38.480Z,102102.69
2023-04-19T08:35:42.096Z,102091.16
2023-04-19T08:38:51.829Z,102085.09
2023-04-19T08:42:12.618Z,102092.50
2023-04-19T08:45:29.639Z,102081.28
2023-04-19T08:48:35.951Z,102078.91
2023-04-19T08:51:40.083Z,102079.06
2023-04-19T08:54:45.259Z,102077.25
2023-04-19T08:57:48.760Z,102074.81
2023-04-19T09:00:51.957Z,102075.25
2023-04-19T09:07:00.923Z,102080.94
2023-04-19T09:10:10.675Z,102085.06
2023-04-19T09:13:13.950Z,102058.34
2023-04-19T09:16:26.419Z,102056.47
2023-04-19T09:19:46.966Z,102052.97
2023-04-19T09:23:05.024Z,102031.88
2023-04-19T09:26:22.782Z,102028.00
2023-04-19T09:29:27.072Z,102018.69
2023-04-19T09:32:45.468Z,102027.53
2023-04-19T09:35:49.636Z,102027.22
2023-04-19T09:38:52.835Z,102046.78
2023-04-19T09:41:58.376Z,102020.44
2023-04-19T09:45:28.370Z,102017.09
2023-04-19T09:48:24.473Z,102006.81
2023-04-19T09:51:41.665Z,101999.59
2023-04-19T09:54:46.657Z,101988.16
2023-04-19T09:57:51.277Z,101986.56
2023-04-19T10:01:10.636Z,101968.59
2023-04-19T10:04:37.701Z,101989.88
2023-04-19T10:07:45.183Z,101981.38
2023-04-19T10:10:49.246Z,101986.38
2023-04-19T10:13:57.316Z,101982.50
2023-04-19T10:17:00.840Z,101962.50
2023-04-19T10:20:09.131Z,101978.38
2023-04-19T10:23:12.390Z,101980.59
2023-04-19T10:26:15.287Z,101982.78
2023-04-19T10:29:58.739Z,101969.72
2023-04-19T10:33:03.906Z,101977.22
2023-04-19T10:36:11.113Z,101971.13
2023-04-19T10:39:41.555Z,101965.00
2023-04-19T10:43:18.853Z,101961.94
2023-04-19T10:46:41.467Z,101947.22
2023-04-19T10:49:47.600Z,101958.94
2023-04-19T10:52:50.569Z,101926.53
2023-04-19T10:55:53.607Z,101949.72
2023-04-19T10:59:24.708Z,101938.03
2023-04-19T11:02:33.836Z,101945.44
2023-04-19T11:06:16.862Z,101954.44
2023-04-19T11:09:23.544Z,101945.00
2023-04-19T11:12:26.693Z,101942.47
2023-04-19T11:15:29.509Z,101943.94
2023-04-19T11:18:33.926Z,101938.19
2023-04-19T11:21:41.239Z,101918.47
2023-04-19T11:24:48.371Z,101932.59
2023-04-19T11:27:53.034Z,101922.34
2023-04-19T11:30:56.454Z,101920.66
2023-04-19T11:34:01.468Z,101914.19
2023-04-19T11:37:04.344Z,101909.41
2023-04-19T11:40:08.978Z,101913.38
2023-04-19T11:43:11.872Z,101920.03
2023-04-19T11:46:15.294Z,101906.66
2023-04-19T11:49:29.120Z,101898.06
2023-04-19T11:52:36.588Z,101902.25
2023-04-19T11:55:39.727Z,101903.34
2023-04-19T11:58:45.120Z,101904.59
2023-04-19T12:01:48.180Z,101907.06
2023-04-19T12:04:53.305Z,101894.38
2023-04-19T12:08:04.168Z,101892.63
2023-04-19T12:11:10.077Z,101890.25
2023-04-19T12:14:14.344Z,101882.88
2023-04-19T12:17:17.597Z,101875.94
2023-04-19T12:20:31.723Z,101873.44
2023-04-19T12:23:34.691Z,101865.22
2023-04-19T12:26:38.017Z,101852.13
2023-04-19T12:29:40.859Z,101871.38
2023-04-19T12:32:43.847Z,101860.19
2023-04-19T12:35:48.197Z,101850.66
2023-04-19T12:38:51.788Z,101862.56
2023-04-19T12:41:54.802Z,101854.25
2023-04-19T12:44:57.918Z,101851.97
2023-04-19T12:48:00.761Z,101839.16
2023-04-19T12:51:05.871Z,101834.47
2023-04-19T12:54:08.751Z,101829.28
2023-04-19T12:57:11.726Z,101815.84
2023-04-19T13:00:15.703Z,101805.53
2023-04-19T13:03:18.741Z,101795.97
2023-04-19T13:06:23.414Z,101787.75
2023-04-19T13:09:28.005Z,101789.41
2023-04-19T13:12:31.052Z,101783.47
2023-04-19T13:15:33.972Z,101777.13
2023-04-19T13:18:36.906Z,101777.66
2023-04-19T13:21:41.102Z,101772.31
2023-04-19T13:24:44.081Z,101776.81
2023-04-19T13:27:47.634Z,101778.84
2023-04-19T13:30:50.471Z,101770.97
2023-04-19T13:33:53.753Z,101761.44
2023-04-19T13:36:58.435Z,101757.78
2023-04-19T13:40:14.693Z,101756.56
2023-04-19T13:43:20.831Z,101758.66
2023-04-19T13:46:23.937Z,101755.66
2023-04-19T13:49:26.929Z,101757.91
2023-04-19T13:52:31.237Z,101750.06
2023-04-19T13:55:34.406Z,101766.09
2023-04-19T13:58:37.296Z,101753.53
2023-04-19T14:01:40.412Z,101762.09
2023-04-19T14:04:43.593Z,101764.25
2023-04-19T14:07:48.001Z,101754.56
2023-04-19T14:10:51.325Z,101757.78
2023-04-19T14:13:54.143Z,101750.75
2023-04-19T14:16:57.102Z,101748.13
2023-04-19T14:19:59.939Z,101744.22
2023-04-19T14:23:04.827Z,101722.84
2023-04-19T14:26:07.716Z,101721.28
2023-04-19T14:29:10.831Z,101717.47
2023-04-19T14:32:25.003Z,101711.72
2023-04-19T14:35:29.335Z,101708.44
2023-04-19T14:38:34.041Z,101709.56
2023-04-19T14:41:36.930Z,101708.06
2023-04-19T14:44:39.884Z,101699.75
2023-04-19T14:47:42.748Z,101714.34
2023-04-19T14:50:45.607Z,101706.28
2023-04-19T14:53:49.913Z,101713.78
2023-04-19T14:56:53.670Z,101721.97
2023-04-19T14:59:58.512Z,101727.22
2023-04-19T15:03:02.788Z,101743.19
2023-04-19T15:06:06.330Z,101743.06
2023-04-19T15:09:10.815Z,101762.63
2023-04-19T15:12:13.683Z,101768.06
2023-04-19T15:15:16.684Z,101790.28
2023-04-19T15:18:19.580Z,101801.34
2023-04-19T15:21:24.498Z,101807.63
2023-04-19T15:24:29.347Z,101817.94
2023-04-19T15:27:32.449Z,101829.59
2023-04-19T15:30:35.435Z,101819.97
2023-04-19T15:33:38.498Z,101824.56
2023-04-19T15:36:41.762Z,101811.03
2023-04-19T15:39:46.043Z,101812.19
2023-04-19T15:42:48.899Z,101817.00
2023-04-19T15:45:51.681Z,101804.59
2023-04-19T15:48:54.731Z,101802.88
2023-04-19T15:51:57.786Z,101796.81
2023-04-19T15:55:02.036Z,101798.22
2023-04-19T15:58:06.484Z,101788.38
2023-04-19T16:01:12.287Z,101788.16
2023-04-19T16:04:15.440Z,101780.16
2023-04-19T16:07:18.325Z,101773.13
2023-04-19T16:10:22.844Z,101764.22
2023-04-19T16:13:25.704Z,101760.22
2023-04-19T16:16:31.344Z,101757.88
2023-04-19T16:19:34.350Z,101752.63
2023-04-19T16:22:37.177Z,101758.09
2023-04-19T16:25:42.414Z,101745.50
2023-04-19T16:28:48.125Z,101746.06
2023-04-19T16:31:52.693Z,101737.53
2023-04-19T16:34:55.686Z,101737.91
2023-04-19T16:38:03.131Z,101731.38
2023-04-19T16:41:07.640Z,101733.72
2023-04-19T16:44:10.679Z,101731.66
2023-04-19T16:47:13.497Z,101723.25
2023-04-19T16:50:16.185Z,101712.53
2023-04-19T16:53:19.096Z,101710.44
2023-04-19T16:56:24.209Z,101712.81
2023-04-19T16:59:27.053Z,101712.56
2023-04-19T17:02:29.941Z,101712.31
2023-04-19T17:05:32.949Z,101711.75
2023-04-19T17:08:36.383Z,101702.75
2023-04-19T17:11:40.549Z,101701.91
2023-04-19T17:14:43.435Z,101693.31
2023-04-19T17:17:46.142Z,101698.41
2023-04-19T17:20:49.059Z,101701.34
2023-04-19T17:23:51.817Z,101698.41
2023-04-19T17:26:56.837Z,101698.81
2023-04-19T17:29:59.538Z,101707.44
2023-04-19T17:33:02.475Z,101702.81
2023-04-19T17:36:06.000Z,101701.34
2023-04-19T17:39:08.853Z,101705.13
2023-04-19T17:42:12.902Z,101701.34
2023-04-19T17:45:16.612Z,101698.41
2023-04-19T17:48:19.450Z,101715.22
2023-04-19T17:51:22.361Z,101705.97
2023-04-19T17:54:25.278Z,101712.47
2023-04-19T17:57:29.857Z,101711.00
2023-04-19T18:00:32.744Z,101717.94
2023-04-19T18:03:35.878Z,101712.47
2023-04-19T18:06:39.065Z,101716.25
2023-04-19T18:09:41.878Z,101719.41
2023-04-19T18:12:47.464Z,101722.97
2023-04-19T18:15:50.406Z,101717.50
2023-04-19T18:18:53.225Z,101722.78
2023-04-19T18:21:56.400Z,101717.31
2023-04-19T18:24:59.288Z,101725.06
2023-04-19T18:28:03.664Z,101726.31
2023-04-19T18:31:06.846Z,101727.19
2023-04-19T18:34:11.914Z,101729.28
2023-04-19T18:37:16.865Z,101726.31
2023-04-19T18:40:19.927Z,101728.63
2023-04-19T18:43:25.886Z,101725.72
2023-04-19T18:46:29.571Z,101728.22
2023-04-19T18:49:32.866Z,101732.19
2023-04-19T18:52:36.838Z,101730.94
2023-04-19T18:55:40.873Z,101731.78
2023-04-19T18:58:45.061Z,101726.34
2023-04-19T19:01:48.524Z,101736.41
2023-04-19T19:04:57.846Z,101737.25
2023-04-19T19:08:04.711Z,101736.63
2023-04-19T19:11:29.224Z,101745.88
2023-04-19T19:14:35.666Z,101728.63
2023-04-19T19:17:38.699Z,101729.25
2023-04-19T19:20:41.508Z,101739.34
2023-04-19T19:23:44.370Z,101729.06
2023-04-19T19:26:47.113Z,101731.38
2023-04-19T19:29:51.403Z,101736.63
2023-04-19T19:32:54.224Z,101737.03
2023-04-19T19:35:57.163Z,101754.03
2023-04-19T19:38:59.872Z,101749.63
2023-04-19T19:42:06.375Z,101752.16
2023-04-19T19:45:11.753Z,101758.63
2023-04-19T19:48:14.566Z,101749.41
2023-04-19T19:51:47.614Z,101751.50
2023-04-19T19:54:40.314Z,101755.28
2023-04-19T20:00:52.672Z,101752.13
2023-04-19T20:03:56.436Z,101766.66
2023-04-19T20:10:06.270Z,101761.59
2023-04-19T20:13:09.282Z,101756.13
2023-04-19T20:16:14.780Z,101758.63
2023-04-19T20:19:18.328Z,101765.34
2023-04-19T20:22:21.482Z,101776.25
2023-04-19T20:25:24.247Z,101784.03
2023-04-19T20:28:27.382Z,101777.53
2023-04-19T20:31:31.757Z,101773.09
2023-04-19T20:34:34.475Z,101756.53
2023-04-19T20:37:37.726Z,101754.22
2023-04-19T20:40:40.567Z,101763.47
2023-04-19T20:43:44.833Z,101766.78
2023-04-19T20:46:50.341Z,101765.34
2023-04-19T20:49:53.264Z,101768.06
2023-04-19T20:52:56.586Z,101765.13
2023-04-19T20:56:00.379Z,101766.41
2023-04-19T20:59:03.067Z,101767.66
2023-04-19T21:02:07.552Z,101761.78
2023-04-19T21:05:10.846Z,101760.06
2023-04-19T21:08:15.131Z,101757.16
2023-04-19T21:11:17.911Z,101752.75
2023-04-19T21:14:20.814Z,101761.78
2023-04-19T21:17:25.147Z,101758.63
2023-04-19T21:20:28.141Z,101768.91
2023-04-19T21:23:31.003Z,101765.97
2023-04-19T21:26:33.959Z,101771.84
2023-04-19T21:29:36.838Z,101767.66
2023-04-19T21:32:41.172Z,101767.47
2023-04-19T21:35:44.080Z,101768.31
2023-04-19T21:38:46.961Z,101759.69
2023-04-19T21:41:49.648Z,101764.47
2023-04-19T21:44:52.469Z,101763.66
2023-04-19T21:47:56.567Z,101771.84
2023-04-19T21:50:59.488Z,101761.09
2023-04-19T21:54:02.221Z,101766.38
2023-04-19T21:57:05.552Z,101769.09
2023-04-19T22:00:10.260Z,101770.78
2023-04-19T22:03:15.709Z,101769.53
2023-04-19T22:06:19.385Z,101773.72
2023-04-19T22:09:22.202Z,101770.16
2023-04-19T22:12:25.756Z,101771.81
2023-04-19T22:15:28.480Z,101768.69
2023-04-19T22:18:34.315Z,101772.66
2023-04-19T22:21:37.236Z,101779.97
2023-04-19T22:24:53.860Z,101767.59
2023-04-19T22:28:00.009Z,101762.56
2023-04-19T22:31:03.131Z,101767.19
2023-04-19T22:34:07.480Z,101754.84
2023-04-19T22:37:10.500Z,101755.47
2023-04-19T22:40:13.985Z,101766.59
2023-04-19T22:43:17.518Z,101753.56
2023-04-19T22:46:20.371Z,101762.59
2023-04-19T22:49:24.516Z,101769.91
2023-04-19T22:52:27.860Z,101753.16
2023-04-19T22:55:30.827Z,101760.72
2023-04-19T22:58:33.714Z,101751.47
2023-04-19T23:01:36.622Z,101757.13
2023-04-19T23:04:41.127Z,101746.44
2023-04-19T23:07:45.123Z,101743.06
2023-04-19T23:10:51.024Z,101743.50
2023-04-19T23:13:54.067Z,101755.25
2023-04-19T23:16:57.224Z,101748.97
2023-04-19T23:20:01.277Z,101740.16
2023-04-19T23:23:05.239Z,101736.59
2023-04-19T23:26:08.093Z,101741.63
2023-04-19T23:29:10.828Z,101732.38
2023-04-19T23:32:13.694Z,101729.03
2023-04-19T23:35:17.808Z,101731.53
2023-04-19T23:38:20.972Z,101726.31
2023-04-19T23:41:24.045Z,101729.06
2023-04-19T23:44:27.552Z,101737.22
2023-04-19T23:47:30.458Z,101733.44
2023-04-19T23:50:34.554Z,101736.41
2023-04-19T23:53:38.730Z,101728.63
2023-04-19T23:56:41.505Z,101719.38
2023-04-19T23:59:44.352Z,101715.59
